createdAt,value
2023-04-30T00:00:32.025Z,2.40
2023-04-30T00:01:54.197Z,2.40
2023-04-30T00:03:16.354Z,2.83
2023-04-30T00:04:38.492Z,4.27
2023-04-30T00:06:00.652Z,3.10
2023-04-30T00:07:22.798Z,2.80
2023-04-30T00:08:44.818Z,2.57
2023-04-30T00:10:07.411Z,3.10
2023-04-30T00:11:29.578Z,3.40
2023-04-30T00:12:51.620Z,2.93
2023-04-30T00:14:13.632Z,3.83
2023-04-30T00:15:36.145Z,3.53
2023-04-30T00:16:58.192Z,3.63
2023-04-30T00:18:20.253Z,3.10
2023-04-30T00:19:42.716Z,3.53
2023-04-30T00:21:05.101Z,3.30
2023-04-30T00:22:27.197Z,3.63
2023-04-30T00:23:49.229Z,3.40
2023-04-30T00:25:11.386Z,3.53
2023-04-30T00:26:33.426Z,3.60
2023-04-30T00:27:55.825Z,3.50
2023-04-30T00:29:17.853Z,3.30
2023-04-30T00:30:39.872Z,3.90
2023-04-30T00:32:01.914Z,2.43
2023-04-30T00:33:23.969Z,3.10
2023-04-30T00:34:46.041Z,3.70
2023-04-30T00:36:08.188Z,2.73
2023-04-30T00:37:30.252Z,3.20
2023-04-30T00:38:52.258Z,3.13
2023-04-30T00:40:14.631Z,3.33
2023-04-30T00:41:37.140Z,3.00
2023-04-30T00:42:59.176Z,2.93
2023-04-30T00:44:21.226Z,3.17
2023-04-30T00:45:43.355Z,2.87
2023-04-30T00:47:05.473Z,2.80
2023-04-30T00:48:28.050Z,2.77
2023-04-30T00:49:50.048Z,2.40
2023-04-30T00:51:12.222Z,2.70
2023-04-30T00:52:34.431Z,2.93
2023-04-30T00:53:56.801Z,2.73
2023-04-30T00:55:19.005Z,2.77
2023-04-30T00:56:41.306Z,3.13
2023-04-30T00:58:03.359Z,2.63
2023-04-30T00:59:25.493Z,2.77
2023-04-30T01:00:48.824Z,3.17
2023-04-30T01:02:11.114Z,2.83
2023-04-30T01:03:33.400Z,3.53
2023-04-30T01:04:56.437Z,2.80
2023-04-30T01:06:18.528Z,4.10
2023-04-30T01:07:46.141Z,3.50
2023-04-30T01:09:08.242Z,3.50
2023-04-30T01:10:36.109Z,4.30
2023-04-30T01:12:06.832Z,3.50
2023-04-30T01:13:53.476Z,3.30
2023-04-30T01:15:43.039Z,3.80
2023-04-30T01:17:20.449Z,3.00
2023-04-30T01:18:49.297Z,4.03
2023-04-30T01:20:12.815Z,3.40
2023-04-30T01:21:39.092Z,3.70
2023-04-30T01:23:38.266Z,3.43
2023-04-30T01:25:26.517Z,3.33
2023-04-30T01:27:29.374Z,3.63
2023-04-30T01:28:54.427Z,2.90
2023-04-30T01:30:18.447Z,2.47
2023-04-30T01:31:43.913Z,3.67
2023-04-30T01:33:06.158Z,3.60
2023-04-30T01:34:28.281Z,3.07
2023-04-30T01:36:20.838Z,3.77
2023-04-30T01:38:09.885Z,3.10
2023-04-30T01:40:27.636Z,3.17
2023-04-30T01:42:14.667Z,2.77
2023-04-30T01:44:14.649Z,2.80
2023-04-30T01:45:42.996Z,4.50
2023-04-30T01:47:12.869Z,3.37
2023-04-30T01:48:52.643Z,3.30
2023-04-30T01:50:52.041Z,3.17
2023-04-30T01:52:41.903Z,2.77
2023-04-30T01:54:16.260Z,2.83
2023-04-30T01:55:44.730Z,3.40
2023-04-30T01:57:09.982Z,2.87
2023-04-30T01:58:32.540Z,2.30
2023-04-30T01:59:54.884Z,3.37
2023-04-30T02:01:30.977Z,3.00
2023-04-30T02:02:53.378Z,2.60
2023-04-30T02:04:15.962Z,3.20
2023-04-30T02:05:38.007Z,3.37
2023-04-30T02:07:01.059Z,3.37
2023-04-30T02:08:23.061Z,2.53
2023-04-30T02:09:45.043Z,2.80
2023-04-30T02:11:07.062Z,3.00
2023-04-30T02:12:30.158Z,2.80
2023-04-30T02:13:52.142Z,2.73
2023-04-30T02:15:15.138Z,3.30
2023-04-30T02:16:37.245Z,3.00
2023-04-30T02:17:59.376Z,3.00
2023-04-30T02:19:21.428Z,3.00
2023-04-30T02:20:43.697Z,3.03
2023-04-30T02:22:05.743Z,2.80
2023-04-30T02:23:27.758Z,2.53
2023-04-30T02:24:50.077Z,3.57
2023-04-30T02:26:12.099Z,3.30
2023-04-30T02:27:34.761Z,3.10
2023-04-30T02:28:56.843Z,3.10
2023-04-30T02:30:20.787Z,2.27
2023-04-30T02:31:42.920Z,3.73
2023-04-30T02:33:05.297Z,3.10
2023-04-30T02:34:27.417Z,2.67
2023-04-30T02:35:49.443Z,3.07
2023-04-30T02:37:11.878Z,2.87
2023-04-30T02:38:33.900Z,2.60
2023-04-30T02:39:56.520Z,2.70
2023-04-30T02:41:18.742Z,2.40
2023-04-30T02:42:40.798Z,2.70
2023-04-30T02:44:03.153Z,2.80
2023-04-30T02:45:25.370Z,3.20
2023-04-30T02:46:47.410Z,3.23
2023-04-30T02:48:09.502Z,3.50
2023-04-30T02:49:31.597Z,4.20
2023-04-30T02:50:53.592Z,4.47
2023-04-30T02:52:15.714Z,3.80
2023-04-30T02:53:37.738Z,4.57
2023-04-30T02:54:59.759Z,3.97
2023-04-30T02:56:21.771Z,4.97
2023-04-30T02:57:43.874Z,4.23
2023-04-30T02:59:06.254Z,3.33
2023-04-30T03:00:28.338Z,4.80
2023-04-30T03:01:50.442Z,3.90
2023-04-30T03:03:12.610Z,4.13
2023-04-30T03:04:34.702Z,4.47
2023-04-30T03:05:59.412Z,3.73
2023-04-30T03:07:21.923Z,3.93
2023-04-30T03:08:43.977Z,4.17
2023-04-30T03:10:06.744Z,3.67
2023-04-30T03:11:28.773Z,4.43
2023-04-30T03:12:50.878Z,4.47
2023-04-30T03:14:12.916Z,3.87
2023-04-30T03:15:34.984Z,3.73
2023-04-30T03:16:59.433Z,3.53
2023-04-30T03:18:21.498Z,3.67
2023-04-30T03:19:43.528Z,3.63
2023-04-30T03:21:05.736Z,4.37
2023-04-30T03:22:27.739Z,4.00
2023-04-30T03:23:49.745Z,3.00
2023-04-30T03:25:11.811Z,3.17
2023-04-30T03:26:33.909Z,3.37
2023-04-30T03:27:56.057Z,3.23
2023-04-30T03:29:18.318Z,2.73
2023-04-30T03:30:40.521Z,3.30
2023-04-30T03:32:02.784Z,2.90
2023-04-30T03:33:25.194Z,3.77
2023-04-30T03:34:47.306Z,2.80
2023-04-30T03:36:09.370Z,2.73
2023-04-30T03:37:31.778Z,2.60
2023-04-30T03:38:53.872Z,2.80
2023-04-30T03:40:15.973Z,2.50
2023-04-30T03:41:38.046Z,3.20
2023-04-30T03:43:00.322Z,3.37
2023-04-30T03:44:23.001Z,2.53
2023-04-30T03:45:45.103Z,3.37
2023-04-30T03:47:07.170Z,3.70
2023-04-30T03:48:29.332Z,2.77
2023-04-30T03:49:55.343Z,3.97
2023-04-30T03:51:20.457Z,2.97
2023-04-30T03:52:42.538Z,2.87
2023-04-30T03:54:04.572Z,2.67
2023-04-30T03:55:26.883Z,2.90
2023-04-30T03:56:48.974Z,2.80
2023-04-30T03:58:11.180Z,2.60
2023-04-30T03:59:33.673Z,2.93
2023-04-30T04:00:55.823Z,2.80
2023-04-30T04:02:17.898Z,3.13
2023-04-30T04:03:40.111Z,3.13
2023-04-30T04:05:02.957Z,2.20
2023-04-30T04:06:24.985Z,2.33
2023-04-30T04:07:47.197Z,3.03
2023-04-30T04:09:09.243Z,2.50
2023-04-30T04:10:31.808Z,2.40
2023-04-30T04:11:53.821Z,2.63
2023-04-30T04:13:15.859Z,2.70
2023-04-30T04:14:38.038Z,2.70
2023-04-30T04:16:00.129Z,2.67
2023-04-30T04:17:22.291Z,2.30
2023-04-30T04:18:44.538Z,2.17
2023-04-30T04:20:07.580Z,2.87
2023-04-30T04:21:29.591Z,2.27
2023-04-30T04:22:51.804Z,2.40
2023-04-30T04:24:13.836Z,2.80
2023-04-30T04:25:35.867Z,1.97
2023-04-30T04:26:58.070Z,2.70
2023-04-30T04:28:20.172Z,2.43
2023-04-30T04:29:42.160Z,2.60
2023-04-30T04:31:04.209Z,2.47
2023-04-30T04:32:27.318Z,2.00
2023-04-30T04:33:49.491Z,3.43
2023-04-30T04:35:11.546Z,2.33
2023-04-30T04:36:34.220Z,2.60
2023-04-30T04:37:56.372Z,2.20
2023-04-30T04:39:18.429Z,2.57
2023-04-30T04:40:41.309Z,2.10
2023-04-30T04:42:04.907Z,2.10
2023-04-30T04:43:27.191Z,2.20
2023-04-30T04:44:49.226Z,4.20
2023-04-30T04:46:13.739Z,2.23
2023-04-30T04:47:36.765Z,2.40
2023-04-30T04:48:59.098Z,1.77
2023-04-30T04:50:21.216Z,2.27
2023-04-30T04:51:43.232Z,2.80
2023-04-30T04:53:05.818Z,2.33
2023-04-30T04:54:28.200Z,2.90
2023-04-30T04:55:50.263Z,2.93
2023-04-30T04:57:12.315Z,3.07
2023-04-30T04:58:34.544Z,2.50
2023-04-30T04:59:56.658Z,2.10
2023-04-30T05:01:18.948Z,2.10
2023-04-30T05:02:41.167Z,2.63
2023-04-30T05:04:03.435Z,2.47
2023-04-30T05:05:25.763Z,2.03
2023-04-30T05:06:48.114Z,2.30
2023-04-30T05:08:10.389Z,2.33
2023-04-30T05:09:32.429Z,2.43
2023-04-30T05:10:54.700Z,2.47
2023-04-30T05:12:16.713Z,2.10
2023-04-30T05:13:38.851Z,2.47
2023-04-30T05:15:01.047Z,2.13
2023-04-30T05:16:23.070Z,2.87
2023-04-30T05:17:45.249Z,2.47
2023-04-30T05:19:09.662Z,2.50
2023-04-30T05:20:31.731Z,3.60
2023-04-30T05:21:53.817Z,2.30
2023-04-30T05:23:16.334Z,2.47
2023-04-30T05:24:38.586Z,2.87
2023-04-30T05:26:00.770Z,2.47
2023-04-30T05:27:22.797Z,2.80
2023-04-30T05:28:45.259Z,2.40
2023-04-30T05:30:09.348Z,2.70
2023-04-30T05:31:32.387Z,2.40
2023-04-30T05:32:54.671Z,3.00
2023-04-30T05:34:16.945Z,2.60
2023-04-30T05:35:39.097Z,2.60
2023-04-30T05:37:01.605Z,3.17
2023-04-30T05:38:23.904Z,2.73
2023-04-30T05:39:46.536Z,2.93
2023-04-30T05:41:11.611Z,2.30
2023-04-30T05:42:33.722Z,2.30
2023-04-30T05:43:55.933Z,2.60
2023-04-30T05:45:18.111Z,3.00
2023-04-30T05:46:40.290Z,2.50
2023-04-30T05:48:02.428Z,2.83
2023-04-30T05:49:25.144Z,2.57
2023-04-30T05:50:47.259Z,2.60
2023-04-30T05:52:09.305Z,2.20
2023-04-30T05:53:31.761Z,2.70
2023-04-30T05:54:54.013Z,2.67
2023-04-30T05:56:16.119Z,3.03
2023-04-30T05:57:38.311Z,2.50
2023-04-30T05:59:00.465Z,2.70
2023-04-30T06:00:22.758Z,2.73
2023-04-30T06:01:44.969Z,2.90
2023-04-30T06:03:08.120Z,3.10
2023-04-30T06:04:30.852Z,2.50
2023-04-30T06:05:53.020Z,2.70
2023-04-30T06:07:15.162Z,3.00
2023-04-30T06:08:37.311Z,3.63
2023-04-30T06:09:59.337Z,2.80
2023-04-30T06:11:22.080Z,2.50
2023-04-30T06:12:44.198Z,3.40
2023-04-30T06:14:06.384Z,3.87
2023-04-30T06:15:28.479Z,2.90
2023-04-30T06:16:51.090Z,3.03
2023-04-30T06:18:14.217Z,2.90
2023-04-30T06:19:36.619Z,3.73
2023-04-30T06:20:58.858Z,3.70
2023-04-30T06:22:20.970Z,3.67
2023-04-30T06:23:42.988Z,2.90
2023-04-30T06:25:05.570Z,3.50
2023-04-30T06:26:27.764Z,3.00
2023-04-30T06:27:51.608Z,3.20
2023-04-30T06:29:13.657Z,2.83
2023-04-30T06:30:36.571Z,3.07
2023-04-30T06:31:58.660Z,3.40
2023-04-30T06:33:21.314Z,3.10
2023-04-30T06:34:43.536Z,3.30
2023-04-30T06:36:06.199Z,3.30
2023-04-30T06:37:28.297Z,2.87
2023-04-30T06:38:50.404Z,3.43
2023-04-30T06:40:12.513Z,3.37
2023-04-30T06:41:34.614Z,3.20
2023-04-30T06:42:56.685Z,3.27
2023-04-30T06:44:19.215Z,3.37
2023-04-30T06:45:41.407Z,2.40
2023-04-30T06:47:03.528Z,3.47
2023-04-30T06:48:25.873Z,2.97
2023-04-30T06:49:47.934Z,2.97
2023-04-30T06:51:10.823Z,2.73
2023-04-30T06:52:33.209Z,2.80
2023-04-30T06:53:56.119Z,2.90
2023-04-30T06:55:18.375Z,2.53
2023-04-30T06:56:40.379Z,3.10
2023-04-30T06:58:02.408Z,2.80
2023-04-30T06:59:24.482Z,2.60
2023-04-30T07:00:46.573Z,2.60
2023-04-30T07:02:08.688Z,2.97
2023-04-30T07:03:30.839Z,2.53
2023-04-30T07:04:53.117Z,2.80
2023-04-30T07:06:15.516Z,3.17
2023-04-30T07:07:37.857Z,2.30
2023-04-30T07:08:59.911Z,3.00
2023-04-30T07:10:22.178Z,2.30
2023-04-30T07:11:45.144Z,2.50
2023-04-30T07:13:08.245Z,2.60
2023-04-30T07:14:30.381Z,2.70
2023-04-30T07:15:52.738Z,2.80
2023-04-30T07:17:14.971Z,2.33
2023-04-30T07:18:38.030Z,3.00
2023-04-30T07:20:00.405Z,2.80
2023-04-30T07:21:22.653Z,2.50
2023-04-30T07:22:46.072Z,2.87
2023-04-30T07:24:08.239Z,2.60
2023-04-30T07:25:30.283Z,3.00
2023-04-30T07:26:52.362Z,3.00
2023-04-30T07:28:14.417Z,2.87
2023-04-30T07:29:37.280Z,3.17
2023-04-30T07:31:00.285Z,2.63
2023-04-30T07:32:22.849Z,2.20
2023-04-30T07:33:45.336Z,3.30
2023-04-30T07:35:07.765Z,3.33
2023-04-30T07:36:29.846Z,3.90
2023-04-30T07:37:51.950Z,2.83
2023-04-30T07:39:14.028Z,2.70
2023-04-30T07:40:36.783Z,2.40
2023-04-30T07:41:58.911Z,3.07
2023-04-30T07:43:21.067Z,2.97
2023-04-30T07:44:43.121Z,2.80
2023-04-30T07:46:05.254Z,2.50
2023-04-30T07:47:27.409Z,2.70
2023-04-30T07:48:49.464Z,2.93
2023-04-30T07:50:12.323Z,3.27
2023-04-30T07:51:34.428Z,3.40
2023-04-30T07:52:56.462Z,2.63
2023-04-30T07:54:18.475Z,3.57
2023-04-30T07:55:40.919Z,2.50
2023-04-30T07:57:03.605Z,2.33
2023-04-30T07:58:25.860Z,2.90
2023-04-30T07:59:50.483Z,2.33
2023-04-30T08:01:15.308Z,2.47
2023-04-30T08:02:37.581Z,3.00
2023-04-30T08:03:59.835Z,2.60
2023-04-30T08:05:22.001Z,3.00
2023-04-30T08:06:44.087Z,3.07
2023-04-30T08:08:06.217Z,3.07
2023-04-30T08:09:28.225Z,3.90
2023-04-30T08:10:50.343Z,2.60
2023-04-30T08:12:12.385Z,2.53
2023-04-30T08:13:34.439Z,2.77
2023-04-30T08:15:05.068Z,2.93
2023-04-30T08:16:27.159Z,3.27
2023-04-30T08:17:50.936Z,2.30
2023-04-30T08:19:13.202Z,2.50
2023-04-30T08:20:36.563Z,2.53
2023-04-30T08:22:01.225Z,2.07
2023-04-30T08:23:23.320Z,2.90
2023-04-30T08:24:45.480Z,2.70
2023-04-30T08:26:07.564Z,2.57
2023-04-30T08:27:31.444Z,3.23
2023-04-30T08:28:53.527Z,3.83
2023-04-30T08:30:15.926Z,2.30
2023-04-30T08:31:38.082Z,2.73
2023-04-30T08:33:00.485Z,2.37
2023-04-30T08:34:22.558Z,2.17
2023-04-30T08:35:45.574Z,2.70
2023-04-30T08:37:07.830Z,2.20
2023-04-30T08:38:29.886Z,3.20
2023-04-30T08:39:52.009Z,2.00
2023-04-30T08:41:18.581Z,2.40
2023-04-30T08:42:46.387Z,3.17
2023-04-30T08:44:12.333Z,2.40
2023-04-30T08:45:36.985Z,2.47
2023-04-30T08:47:00.016Z,2.40
2023-04-30T08:48:24.891Z,2.50
2023-04-30T08:49:47.591Z,3.10
2023-04-30T08:51:09.772Z,3.17
2023-04-30T08:52:38.079Z,2.60
2023-04-30T08:54:00.472Z,2.20
2023-04-30T08:55:22.950Z,2.30
2023-04-30T08:56:47.930Z,2.63
2023-04-30T08:58:12.868Z,2.90
2023-04-30T08:59:34.984Z,2.50
2023-04-30T09:00:59.799Z,2.40
2023-04-30T09:02:22.040Z,2.73
2023-04-30T09:03:44.380Z,3.33
2023-04-30T09:05:12.024Z,2.90
2023-04-30T09:06:34.209Z,2.50
2023-04-30T09:09:29.399Z,2.70
2023-04-30T09:10:51.427Z,2.10
2023-04-30T09:12:18.462Z,2.57
2023-04-30T09:13:41.426Z,2.60
2023-04-30T09:15:04.822Z,2.17
2023-04-30T09:16:31.166Z,2.70
2023-04-30T09:18:07.871Z,2.90
2023-04-30T09:19:30.997Z,2.10
2023-04-30T09:20:59.096Z,2.97
2023-04-30T09:22:23.652Z,2.73
2023-04-30T09:23:56.108Z,2.70
2023-04-30T09:25:18.378Z,3.00
2023-04-30T09:26:40.702Z,2.40
2023-04-30T09:28:13.634Z,2.80
2023-04-30T09:29:38.617Z,2.10
2023-04-30T09:31:00.893Z,2.67
2023-04-30T09:32:22.994Z,2.47
2023-04-30T09:33:47.742Z,2.63
2023-04-30T09:35:29.725Z,1.83
2023-04-30T09:36:54.794Z,2.30
2023-04-30T09:38:30.713Z,2.73
2023-04-30T09:39:55.442Z,2.27
2023-04-30T09:41:23.664Z,2.47
2023-04-30T09:43:04.234Z,3.17
2023-04-30T09:44:31.445Z,2.00
2023-04-30T09:45:53.692Z,2.57
2023-04-30T09:47:19.080Z,2.77
2023-04-30T09:48:44.970Z,2.40
2023-04-30T09:50:07.564Z,2.50
2023-04-30T09:51:29.694Z,2.60
2023-04-30T09:53:04.701Z,2.93
2023-04-30T09:54:31.667Z,2.27
2023-04-30T09:55:55.665Z,2.67
2023-04-30T09:57:23.679Z,2.13
2023-04-30T09:58:50.008Z,2.60
2023-04-30T10:00:12.668Z,2.97
2023-04-30T10:01:39.720Z,2.00
2023-04-30T10:03:10.814Z,2.40
2023-04-30T10:04:38.030Z,2.17
2023-04-30T10:06:00.936Z,2.60
2023-04-30T10:07:26.388Z,2.50
2023-04-30T10:08:53.827Z,2.47
2023-04-30T10:10:16.802Z,2.33
2023-04-30T10:11:42.165Z,2.63
2023-04-30T10:13:07.896Z,2.30
2023-04-30T10:14:34.254Z,2.30
2023-04-30T10:15:59.954Z,2.20
2023-04-30T10:17:26.697Z,1.73
2023-04-30T10:18:51.980Z,2.00
2023-04-30T10:20:15.463Z,1.70
2023-04-30T10:21:42.328Z,2.37
2023-04-30T10:23:05.618Z,2.20
2023-04-30T10:24:28.035Z,2.20
2023-04-30T10:25:51.151Z,2.40
2023-04-30T10:27:14.083Z,2.57
2023-04-30T10:28:37.330Z,2.47
2023-04-30T10:30:00.453Z,2.20
2023-04-30T10:31:23.418Z,2.33
2023-04-30T10:33:16.847Z,3.73
2023-04-30T10:34:46.607Z,2.60
2023-04-30T10:36:14.813Z,3.10
2023-04-30T10:37:48.513Z,3.37
2023-04-30T10:39:12.829Z,3.00
2023-04-30T10:40:37.130Z,2.53
2023-04-30T10:42:04.201Z,2.53
2023-04-30T10:43:27.257Z,2.43
2023-04-30T10:44:49.840Z,2.30
2023-04-30T10:46:12.236Z,2.50
2023-04-30T10:47:36.480Z,2.77
2023-04-30T10:49:00.139Z,2.30
2023-04-30T10:50:23.937Z,3.07
2023-04-30T10:51:51.696Z,2.70
2023-04-30T10:53:17.652Z,2.57
2023-04-30T10:54:41.507Z,1.90
2023-04-30T10:56:09.259Z,1.97
2023-04-30T10:57:31.846Z,2.67
2023-04-30T10:58:53.971Z,2.20
2023-04-30T11:00:19.731Z,2.40
2023-04-30T11:01:58.852Z,2.30
2023-04-30T11:03:22.552Z,2.00
2023-04-30T11:05:06.686Z,2.40
2023-04-30T11:06:54.649Z,2.50
2023-04-30T11:08:17.030Z,2.70
2023-04-30T11:09:39.197Z,1.93
2023-04-30T11:11:01.761Z,2.30
2023-04-30T11:12:30.371Z,2.20
2023-04-30T11:14:01.102Z,2.13
2023-04-30T11:15:36.642Z,2.50
2023-04-30T11:17:00.565Z,2.40
2023-04-30T11:18:22.782Z,1.90
2023-04-30T11:19:51.654Z,2.10
2023-04-30T11:21:14.270Z,2.20
2023-04-30T11:22:36.910Z,2.37
2023-04-30T11:24:04.747Z,1.73
2023-04-30T11:25:39.191Z,2.40
2023-04-30T11:27:08.324Z,2.47
2023-04-30T11:28:34.702Z,2.43
2023-04-30T11:29:58.380Z,2.60
2023-04-30T11:31:21.767Z,2.80
2023-04-30T11:32:49.305Z,2.20
2023-04-30T11:34:12.546Z,2.40
2023-04-30T11:35:35.350Z,2.53
2023-04-30T11:37:01.019Z,1.90
2023-04-30T11:39:38.264Z,2.33
2023-04-30T11:41:01.457Z,2.03
2023-04-30T11:42:23.589Z,2.70
2023-04-30T11:43:45.757Z,2.40
2023-04-30T11:45:13.025Z,2.60
2023-04-30T11:46:35.307Z,2.60
2023-04-30T11:47:57.901Z,2.53
2023-04-30T11:49:23.356Z,2.20
2023-04-30T11:50:45.661Z,2.40
2023-04-30T11:52:09.463Z,2.20
2023-04-30T11:53:31.804Z,2.33
2023-04-30T11:54:56.012Z,2.40
2023-04-30T11:56:24.407Z,2.20
2023-04-30T11:57:49.308Z,2.30
2023-04-30T11:59:11.541Z,2.23
2023-04-30T12:00:33.595Z,2.30
2023-04-30T12:01:55.936Z,2.30
2023-04-30T12:03:18.213Z,2.10
2023-04-30T12:04:43.596Z,3.33
2023-04-30T12:06:05.731Z,2.60
2023-04-30T12:07:27.915Z,2.10
2023-04-30T12:08:50.226Z,2.43
2023-04-30T12:10:12.608Z,1.83
2023-04-30T12:11:35.702Z,2.60
2023-04-30T12:12:57.770Z,2.10
2023-04-30T12:14:24.675Z,2.53
2023-04-30T12:15:59.376Z,2.03
2023-04-30T12:17:34.491Z,2.30
2023-04-30T12:18:56.653Z,2.37
2023-04-30T12:20:21.700Z,2.37
2023-04-30T12:21:46.498Z,2.60
2023-04-30T12:23:08.899Z,2.50
2023-04-30T12:24:30.960Z,2.67
2023-04-30T12:25:53.198Z,2.20
2023-04-30T12:27:15.496Z,2.70
2023-04-30T12:28:37.623Z,2.00
2023-04-30T12:30:08.844Z,2.60
2023-04-30T12:31:34.024Z,1.77
2023-04-30T12:33:00.298Z,1.60
2023-04-30T12:34:27.012Z,1.50
2023-04-30T12:35:52.376Z,2.10
2023-04-30T12:37:17.590Z,1.87
2023-04-30T12:38:44.074Z,1.70
2023-04-30T12:40:08.300Z,1.50
2023-04-30T12:41:30.744Z,1.77
2023-04-30T12:43:04.626Z,2.20
2023-04-30T12:44:28.279Z,1.87
2023-04-30T12:45:52.484Z,1.70
2023-04-30T12:47:16.387Z,1.50
2023-04-30T12:48:45.439Z,2.33
2023-04-30T12:50:12.453Z,1.90
2023-04-30T12:51:41.072Z,1.93
2023-04-30T12:53:04.854Z,2.17
2023-04-30T12:54:28.930Z,2.37
2023-04-30T12:56:12.182Z,1.83
2023-04-30T12:57:34.382Z,2.07
2023-04-30T12:58:56.480Z,1.53
2023-04-30T13:00:18.575Z,1.80
2023-04-30T13:01:46.125Z,2.40
2023-04-30T13:03:08.484Z,1.97
2023-04-30T13:04:30.708Z,1.87
2023-04-30T13:05:53.631Z,2.20
2023-04-30T13:07:15.668Z,2.00
2023-04-30T13:08:49.685Z,2.50
2023-04-30T13:10:19.737Z,1.70
2023-04-30T13:11:41.928Z,2.30
2023-04-30T13:13:04.061Z,2.20
2023-04-30T13:14:26.166Z,2.03
2023-04-30T13:15:48.407Z,2.00
2023-04-30T13:17:13.741Z,1.83
2023-04-30T13:18:35.868Z,2.20
2023-04-30T13:19:57.912Z,2.03
2023-04-30T13:21:21.073Z,2.80
2023-04-30T13:22:43.091Z,2.37
2023-04-30T13:24:05.737Z,2.20
2023-04-30T13:25:27.920Z,2.13
2023-04-30T13:26:50.078Z,2.10
2023-04-30T13:28:12.150Z,2.20
2023-04-30T13:29:34.218Z,2.90
2023-04-30T13:30:56.736Z,3.03
2023-04-30T13:32:20.037Z,2.20
2023-04-30T13:33:42.206Z,2.10
2023-04-30T13:35:04.680Z,2.83
2023-04-30T13:36:27.138Z,2.27
2023-04-30T13:37:49.717Z,2.33
2023-04-30T13:39:11.885Z,1.70
2023-04-30T13:40:34.036Z,2.50
2023-04-30T13:41:56.127Z,2.87
2023-04-30T13:43:18.182Z,2.50
2023-04-30T13:44:40.503Z,2.80
2023-04-30T13:46:02.538Z,3.27
2023-04-30T13:47:24.688Z,2.10
2023-04-30T13:48:51.780Z,2.40
2023-04-30T13:50:13.968Z,2.20
2023-04-30T13:51:36.219Z,2.33
2023-04-30T13:52:59.425Z,2.10
2023-04-30T13:54:21.870Z,2.40
2023-04-30T13:55:44.025Z,2.37
2023-04-30T13:57:06.338Z,2.10
2023-04-30T13:58:28.396Z,3.23
2023-04-30T13:59:50.956Z,2.27
2023-04-30T14:01:14.370Z,2.10
2023-04-30T14:02:36.625Z,2.33
2023-04-30T14:03:59.214Z,2.30
2023-04-30T14:05:21.551Z,2.63
2023-04-30T14:06:43.844Z,3.20
2023-04-30T14:08:06.245Z,3.17
2023-04-30T14:09:29.029Z,2.90
2023-04-30T14:10:51.110Z,2.33
2023-04-30T14:12:13.326Z,2.00
2023-04-30T14:13:37.223Z,2.03
2023-04-30T14:14:59.283Z,2.30
2023-04-30T14:16:22.387Z,2.43
2023-04-30T14:17:44.535Z,2.60
2023-04-30T14:19:06.585Z,2.77
2023-04-30T14:20:28.635Z,2.70
2023-04-30T14:21:50.909Z,2.70
2023-04-30T14:23:13.075Z,3.00
2023-04-30T14:24:36.388Z,2.67
2023-04-30T14:25:58.483Z,3.43
2023-04-30T14:27:21.279Z,3.10
2023-04-30T14:28:43.438Z,2.37
2023-04-30T14:30:06.339Z,2.70
2023-04-30T14:31:28.434Z,2.20
2023-04-30T14:32:50.609Z,2.63
2023-04-30T14:34:13.443Z,2.40
2023-04-30T14:35:35.519Z,2.27
2023-04-30T14:36:59.445Z,2.30
2023-04-30T14:38:21.667Z,2.20
2023-04-30T14:39:43.965Z,2.33
2023-04-30T14:41:07.776Z,2.70
2023-04-30T14:42:29.913Z,2.33
2023-04-30T14:43:52.741Z,2.30
2023-04-30T14:45:15.176Z,2.70
2023-04-30T14:46:37.587Z,2.40
2023-04-30T14:48:00.221Z,2.87
2023-04-30T14:49:23.346Z,2.33
2023-04-30T14:50:45.927Z,2.78
2023-04-30T14:52:07.968Z,2.73
2023-04-30T14:53:30.242Z,2.83
2023-04-30T14:54:52.561Z,2.47
2023-04-30T14:56:14.803Z,2.87
2023-04-30T14:57:37.025Z,2.70
2023-04-30T14:58:59.185Z,2.70
2023-04-30T15:00:21.881Z,2.07
2023-04-30T15:01:44.043Z,2.50
2023-04-30T15:03:06.199Z,2.27
2023-04-30T15:04:28.396Z,2.40
2023-04-30T15:05:51.711Z,2.30
2023-04-30T15:07:14.049Z,2.13
2023-04-30T15:08:36.296Z,2.60
2023-04-30T15:09:58.557Z,2.90
2023-04-30T15:11:20.980Z,3.17
2023-04-30T15:12:43.464Z,2.40
2023-04-30T15:14:05.538Z,2.27
2023-04-30T15:15:29.556Z,2.87
2023-04-30T15:16:51.691Z,2.63
2023-04-30T15:18:15.140Z,2.20
2023-04-30T15:19:37.353Z,2.83
2023-04-30T15:20:59.490Z,2.53
2023-04-30T15:22:22.483Z,2.90
2023-04-30T15:23:45.825Z,1.80
2023-04-30T15:25:08.828Z,2.40
2023-04-30T15:26:31.231Z,2.60
2023-04-30T15:27:53.328Z,2.70
2023-04-30T15:29:15.660Z,2.50
2023-04-30T15:30:38.517Z,2.10
2023-04-30T15:32:01.064Z,2.93
2023-04-30T15:33:27.481Z,2.33
2023-04-30T15:34:49.696Z,2.73
2023-04-30T15:36:11.870Z,2.30
2023-04-30T15:37:34.661Z,2.67
2023-04-30T15:38:56.765Z,2.60
2023-04-30T15:40:19.034Z,2.47
2023-04-30T15:41:41.136Z,2.50
2023-04-30T15:43:03.597Z,2.70
2023-04-30T15:44:25.671Z,1.90
2023-04-30T15:45:50.154Z,1.80
2023-04-30T15:47:12.765Z,2.30
2023-04-30T15:48:36.549Z,2.23
2023-04-30T15:49:58.730Z,2.47
2023-04-30T15:51:20.933Z,2.30
2023-04-30T15:52:43.112Z,1.97
2023-04-30T15:54:07.350Z,2.40
2023-04-30T15:55:29.605Z,2.17
2023-04-30T15:56:51.821Z,2.63
2023-04-30T15:58:13.955Z,1.90
2023-04-30T15:59:36.068Z,1.87
2023-04-30T16:00:58.118Z,2.10
2023-04-30T16:02:21.108Z,2.40
2023-04-30T16:03:43.629Z,3.20
2023-04-30T16:05:06.077Z,3.77
2023-04-30T16:06:32.121Z,2.10
2023-04-30T16:07:54.534Z,2.50
2023-04-30T16:09:19.811Z,3.90
2023-04-30T16:10:42.189Z,2.47
2023-04-30T16:12:04.640Z,2.27
2023-04-30T16:13:26.760Z,1.93
2023-04-30T16:14:48.798Z,2.43
2023-04-30T16:16:11.024Z,2.00
2023-04-30T16:17:33.231Z,2.70
2023-04-30T16:18:55.576Z,1.83
2023-04-30T16:20:17.735Z,2.57
2023-04-30T16:21:40.217Z,2.90
2023-04-30T16:23:04.735Z,2.70
2023-04-30T16:24:27.673Z,2.23
2023-04-30T16:25:49.761Z,2.43
2023-04-30T16:27:11.809Z,2.70
2023-04-30T16:28:35.309Z,2.40
2023-04-30T16:29:57.654Z,2.60
2023-04-30T16:31:22.804Z,2.50
2023-04-30T16:32:45.058Z,2.80
2023-04-30T16:34:11.269Z,2.67
2023-04-30T16:35:33.399Z,2.20
2023-04-30T16:36:55.574Z,3.00
2023-04-30T16:38:17.636Z,2.50
2023-04-30T16:39:40.606Z,2.87
2023-04-30T16:41:02.799Z,2.50
2023-04-30T16:42:25.096Z,3.23
2023-04-30T16:43:47.253Z,2.20
2023-04-30T16:45:09.917Z,2.33
2023-04-30T16:46:32.097Z,2.10
2023-04-30T16:47:54.357Z,3.07
2023-04-30T16:49:16.980Z,2.47
2023-04-30T16:50:39.109Z,2.53
2023-04-30T16:52:02.394Z,2.50
2023-04-30T16:53:24.477Z,2.20
2023-04-30T16:54:46.618Z,2.47
2023-04-30T16:56:08.716Z,2.63
2023-04-30T16:57:31.960Z,2.53
2023-04-30T16:58:54.691Z,2.47
2023-04-30T17:00:17.627Z,2.80
2023-04-30T17:01:39.948Z,3.17
2023-04-30T17:03:02.347Z,3.10
2023-04-30T17:04:24.799Z,2.93
2023-04-30T17:05:47.088Z,2.70
2023-04-30T17:07:09.254Z,2.23
2023-04-30T17:08:31.570Z,2.00
2023-04-30T17:09:53.798Z,2.90
2023-04-30T17:11:20.537Z,2.37
2023-04-30T17:12:42.811Z,2.60
2023-04-30T17:14:04.999Z,3.03
2023-04-30T17:15:27.265Z,2.40
2023-04-30T17:16:49.582Z,2.47
2023-04-30T17:18:13.148Z,2.60
2023-04-30T17:19:35.372Z,3.07
2023-04-30T17:20:57.516Z,2.40
2023-04-30T17:22:20.171Z,2.33
2023-04-30T17:23:42.421Z,3.83
2023-04-30T17:25:04.925Z,2.43
2023-04-30T17:26:27.044Z,2.10
2023-04-30T17:27:49.676Z,2.60
2023-04-30T17:29:11.773Z,2.57
2023-04-30T17:30:34.216Z,1.90
2023-04-30T17:31:56.511Z,3.70
2023-04-30T17:33:18.693Z,3.53
2023-04-30T17:34:42.308Z,3.17
2023-04-30T17:36:04.736Z,2.80
2023-04-30T17:37:27.146Z,5.33
2023-04-30T17:38:49.241Z,8.20
2023-04-30T17:40:11.535Z,6.33
2023-04-30T17:41:33.716Z,3.40
2023-04-30T17:42:55.922Z,4.70
2023-04-30T17:44:18.061Z,4.70
2023-04-30T17:45:40.263Z,4.80
2023-04-30T17:47:02.476Z,11.53
2023-04-30T17:48:24.623Z,5.43
2023-04-30T17:49:46.725Z,4.37
2023-04-30T17:51:09.708Z,3.37
2023-04-30T17:52:33.466Z,3.70
2023-04-30T17:53:59.456Z,6.60
2023-04-30T17:55:21.920Z,3.60
2023-04-30T17:56:44.233Z,4.90
2023-04-30T17:58:10.040Z,3.90
2023-04-30T17:59:32.242Z,3.70
2023-04-30T18:00:56.397Z,3.23
2023-04-30T18:02:18.891Z,3.20
2023-04-30T18:03:42.577Z,3.53
2023-04-30T18:05:04.925Z,3.53
2023-04-30T18:06:28.027Z,3.20
2023-04-30T18:07:50.316Z,5.03
2023-04-30T18:09:12.584Z,3.67
2023-04-30T18:10:34.662Z,4.07
2023-04-30T18:11:58.753Z,6.30
2023-04-30T18:13:22.361Z,8.27
2023-04-30T18:14:44.649Z,6.50
2023-04-30T18:16:07.389Z,5.80
2023-04-30T18:17:29.555Z,5.00
2023-04-30T18:18:51.750Z,3.83
2023-04-30T18:20:13.799Z,3.87
2023-04-30T18:21:36.090Z,5.07
2023-04-30T18:22:58.203Z,4.60
2023-04-30T18:24:20.882Z,6.10
2023-04-30T18:25:43.619Z,8.60
2023-04-30T18:27:06.888Z,7.17
2023-04-30T18:28:29.164Z,6.60
2023-04-30T18:29:52.208Z,6.70
2023-04-30T18:31:14.566Z,6.93
2023-04-30T18:32:37.447Z,5.10
2023-04-30T18:33:59.599Z,6.30
2023-04-30T18:35:22.198Z,4.33
2023-04-30T18:36:44.336Z,4.83
2023-04-30T18:38:08.149Z,4.70
2023-04-30T18:39:31.622Z,6.13